createdAt,value
2022-12-17T00:02:40.447Z,34.67
2022-12-17T00:05:31.125Z,34.10
2022-12-17T00:08:22.420Z,33.10
2022-12-17T00:11:12.444Z,34.17
2022-12-17T00:14:02.039Z,33.67
2022-12-17T00:16:52.579Z,35.65
2022-12-17T00:19:43.978Z,33.97
2022-12-17T00:22:33.741Z,33.53
2022-12-17T00:25:23.795Z,31.10
2022-12-17T00:28:14.432Z,32.53
2022-12-17T00:31:04.476Z,31.13
2022-12-17T00:33:53.895Z,31.00
2022-12-17T00:36:43.895Z,32.20
2022-12-17T00:39:34.175Z,32.78
2022-12-17T00:42:24.490Z,30.85
2022-12-17T00:45:14.509Z,33.53
2022-12-17T00:48:04.858Z,32.75
2022-12-17T00:50:56.936Z,31.60
2022-12-17T00:53:47.996Z,30.15
2022-12-17T00:56:37.666Z,29.55
2022-12-17T00:59:28.320Z,28.08
2022-12-17T01:02:18.734Z,29.48
2022-12-17T01:05:09.508Z,29.98
2022-12-17T01:08:00.007Z,28.83
2022-12-17T01:10:49.995Z,26.92
2022-12-17T01:13:40.985Z,29.98
2022-12-17T01:16:34.003Z,29.83
2022-12-17T01:19:24.125Z,28.70
2022-12-17T01:22:14.539Z,28.65
2022-12-17T01:25:04.613Z,47.33
2022-12-17T01:27:55.220Z,29.42
2022-12-17T01:30:46.360Z,27.15
2022-12-17T01:33:37.557Z,24.20
2022-12-17T01:36:28.345Z,22.70
2022-12-17T01:39:18.993Z,24.05
2022-12-17T01:42:09.175Z,23.00
2022-12-17T01:45:17.579Z,23.40
2022-12-17T01:48:17.284Z,27.30
2022-12-17T01:51:16.267Z,23.35
2022-12-17T01:54:15.256Z,23.98
2022-12-17T01:57:06.612Z,23.85
2022-12-17T02:00:18.030Z,41.15
2022-12-17T02:03:08.714Z,24.35
2022-12-17T02:06:37.581Z,24.52
2022-12-17T02:09:48.605Z,39.95
2022-12-17T02:13:01.896Z,24.33
2022-12-17T02:16:02.006Z,28.63
2022-12-17T02:19:04.202Z,24.83
2022-12-17T02:21:56.879Z,21.55
2022-12-17T02:25:05.533Z,19.63
2022-12-17T02:27:57.169Z,20.85
2022-12-17T02:30:47.919Z,20.85
2022-12-17T02:33:39.302Z,22.85
2022-12-17T02:36:31.539Z,25.33
2022-12-17T02:39:21.719Z,20.42
2022-12-17T02:42:15.400Z,23.95
2022-12-17T02:45:06.419Z,24.02
2022-12-17T02:47:57.568Z,21.33
2022-12-17T02:50:47.851Z,22.80
2022-12-17T02:53:38.473Z,22.52
2022-12-17T02:56:28.792Z,23.38
2022-12-17T02:59:19.143Z,21.10
2022-12-17T03:02:12.934Z,22.25
2022-12-17T03:05:21.196Z,22.77
2022-12-17T03:08:13.358Z,21.55
2022-12-17T03:11:03.219Z,22.52
2022-12-17T03:13:53.156Z,20.92
2022-12-17T03:16:43.472Z,19.98
2022-12-17T03:19:33.895Z,20.63
2022-12-17T03:22:26.611Z,22.98
2022-12-17T03:25:16.194Z,26.52
2022-12-17T03:28:05.869Z,27.17
2022-12-17T03:30:55.881Z,20.08
2022-12-17T03:33:46.270Z,19.13
2022-12-17T03:36:36.693Z,18.45
2022-12-17T03:39:27.776Z,17.23
2022-12-17T03:42:17.385Z,17.35
2022-12-17T03:45:07.841Z,15.73
2022-12-17T03:47:57.778Z,17.13
2022-12-17T03:50:48.192Z,14.90
2022-12-17T03:53:38.892Z,15.63
2022-12-17T03:56:29.286Z,14.85
2022-12-17T03:59:19.323Z,15.43
2022-12-17T04:02:09.192Z,17.73
2022-12-17T04:04:59.353Z,17.25
2022-12-17T04:07:49.128Z,17.33
2022-12-17T04:10:39.421Z,18.08
2022-12-17T04:13:29.034Z,25.55
2022-12-17T04:16:18.904Z,28.50
2022-12-17T04:19:09.450Z,18.20
2022-12-17T04:21:59.545Z,17.02
2022-12-17T04:24:49.504Z,17.05
2022-12-17T04:27:39.796Z,16.33
2022-12-17T04:30:31.021Z,17.17
2022-12-17T04:33:20.997Z,17.27
2022-12-17T04:36:10.752Z,16.45
2022-12-17T04:39:00.875Z,16.75
2022-12-17T04:41:50.865Z,16.83
2022-12-17T04:44:40.456Z,16.88
2022-12-17T04:47:30.472Z,15.38
2022-12-17T04:50:20.357Z,17.08
2022-12-17T04:53:10.226Z,16.55
2022-12-17T04:55:59.883Z,17.13
2022-12-17T04:58:50.205Z,15.85
2022-12-17T05:01:40.790Z,17.20
2022-12-17T05:04:30.953Z,26.20
2022-12-17T05:07:20.973Z,16.73
2022-12-17T05:10:10.736Z,16.23
2022-12-17T05:13:00.762Z,16.35
2022-12-17T05:15:53.251Z,36.70
2022-12-17T05:18:43.926Z,14.40
2022-12-17T05:21:34.285Z,14.13
2022-12-17T05:24:24.332Z,12.95
2022-12-17T05:27:14.643Z,13.73
2022-12-17T05:30:04.798Z,13.98
2022-12-17T05:32:54.927Z,23.38
2022-12-17T05:35:44.931Z,12.82
2022-12-17T05:38:34.902Z,13.60
2022-12-17T05:41:24.541Z,13.18
2022-12-17T05:44:14.466Z,14.05
2022-12-17T05:47:04.151Z,14.82
2022-12-17T05:49:54.414Z,15.63
2022-12-17T05:52:47.130Z,14.25
2022-12-17T05:55:37.019Z,13.98
2022-12-17T05:58:32.366Z,14.13
2022-12-17T06:01:25.627Z,13.60
2022-12-17T06:04:15.915Z,14.10
2022-12-17T06:07:05.896Z,14.00
2022-12-17T06:09:56.218Z,14.18
2022-12-17T06:12:46.257Z,13.48
2022-12-17T06:15:36.255Z,13.50
2022-12-17T06:18:26.030Z,13.20
2022-12-17T06:21:15.686Z,13.55
2022-12-17T06:24:06.042Z,14.63
2022-12-17T06:26:56.300Z,14.13
2022-12-17T06:29:46.476Z,15.05
2022-12-17T06:32:36.811Z,13.65
2022-12-17T06:35:26.823Z,13.23
2022-12-17T06:38:24.839Z,13.77
2022-12-17T06:41:14.959Z,12.85
2022-12-17T06:44:04.518Z,13.05
2022-12-17T06:46:54.917Z,13.48
2022-12-17T06:49:45.648Z,13.15
2022-12-17T06:52:35.976Z,13.10
2022-12-17T06:55:26.515Z,14.07
2022-12-17T06:58:22.856Z,21.27
2022-12-17T07:01:15.995Z,25.00
2022-12-17T07:04:05.636Z,13.55
2022-12-17T07:06:58.703Z,13.15
2022-12-17T07:09:48.624Z,26.98
2022-12-17T07:12:38.307Z,12.80
2022-12-17T07:15:28.983Z,20.98
2022-12-17T07:18:21.205Z,12.77
2022-12-17T07:21:15.287Z,13.80
2022-12-17T07:24:05.137Z,13.32
2022-12-17T07:26:55.060Z,13.90
2022-12-17T07:29:44.993Z,13.57
2022-12-17T07:32:34.897Z,12.82
2022-12-17T07:35:24.986Z,15.02
2022-12-17T07:38:25.817Z,12.85
2022-12-17T07:41:15.863Z,13.30
2022-12-17T07:44:05.728Z,12.65
2022-12-17T07:46:56.061Z,12.85
2022-12-17T07:49:46.207Z,12.13
2022-12-17T07:52:36.362Z,13.27
2022-12-17T07:55:26.798Z,13.75
2022-12-17T07:58:28.587Z,13.25
2022-12-17T08:01:22.231Z,12.60
2022-12-17T08:04:11.976Z,13.18
2022-12-17T08:07:08.719Z,13.70
2022-12-17T08:10:00.843Z,15.40
2022-12-17T08:12:50.853Z,15.82
2022-12-17T08:15:41.148Z,13.68
2022-12-17T08:18:31.160Z,12.75
2022-12-17T08:21:20.945Z,12.55
2022-12-17T08:24:10.730Z,13.15
2022-12-17T08:27:00.333Z,14.57
2022-12-17T08:29:49.949Z,14.85
2022-12-17T08:32:40.371Z,15.48
2022-12-17T08:35:30.665Z,15.73
2022-12-17T08:38:27.748Z,16.17
2022-12-17T08:41:21.133Z,16.15
2022-12-17T08:44:11.058Z,15.15
2022-12-17T08:47:01.802Z,14.88
2022-12-17T08:49:54.865Z,15.50
2022-12-17T08:52:44.513Z,16.13
2022-12-17T08:55:34.515Z,14.07
2022-12-17T08:58:24.552Z,15.23
2022-12-17T09:01:14.662Z,15.38
2022-12-17T09:04:04.833Z,15.73
2022-12-17T09:06:54.928Z,15.18
2022-12-17T09:09:44.452Z,14.40
2022-12-17T09:12:34.206Z,15.25
2022-12-17T09:15:24.615Z,15.85
2022-12-17T09:18:14.931Z,16.65
2022-12-17T09:21:05.874Z,15.20
2022-12-17T09:23:56.966Z,14.48
2022-12-17T09:26:47.044Z,14.23
2022-12-17T09:29:37.506Z,16.20
2022-12-17T09:32:27.671Z,16.17
2022-12-17T09:35:17.944Z,15.52
2022-12-17T09:38:16.912Z,16.33
2022-12-17T09:41:10.560Z,15.20
2022-12-17T09:44:17.022Z,15.82
2022-12-17T09:47:33.884Z,15.15
2022-12-17T09:50:27.140Z,15.63
2022-12-17T09:53:17.476Z,15.70
2022-12-17T09:56:15.414Z,16.48
2022-12-17T09:59:05.776Z,18.00
2022-12-17T10:01:57.047Z,18.13
2022-12-17T10:05:01.201Z,17.08
2022-12-17T10:07:57.443Z,19.80
2022-12-17T10:10:51.540Z,17.45
2022-12-17T10:13:45.423Z,17.67
2022-12-17T10:17:14.255Z,17.13
2022-12-17T10:20:05.551Z,16.60
2022-12-17T10:23:05.777Z,17.70
2022-12-17T10:25:56.862Z,24.98
2022-12-17T10:28:47.448Z,26.67
2022-12-17T10:31:44.771Z,23.13
2022-12-17T10:34:39.154Z,26.08
2022-12-17T10:37:39.448Z,24.30
2022-12-17T10:40:47.448Z,20.75
2022-12-17T10:44:00.381Z,30.08
2022-12-17T10:46:53.299Z,98.97
2022-12-17T10:49:46.483Z,22.25
2022-12-17T10:52:55.837Z,18.20
2022-12-17T10:55:51.321Z,18.17
2022-12-17T10:58:47.405Z,16.65
2022-12-17T11:01:48.384Z,16.55
2022-12-17T11:04:52.977Z,16.75
2022-12-17T11:07:59.225Z,16.30
2022-12-17T11:10:52.775Z,15.57
2022-12-17T11:14:06.628Z,16.15
2022-12-17T11:17:05.020Z,15.40
2022-12-17T11:20:22.314Z,15.60
2022-12-17T11:23:20.130Z,15.55
2022-12-17T11:26:34.249Z,15.25
2022-12-17T11:29:24.020Z,15.18
2022-12-17T11:32:53.220Z,14.95
2022-12-17T11:36:31.386Z,14.50
2022-12-17T11:39:54.657Z,14.25
2022-12-17T11:42:55.712Z,15.15
2022-12-17T11:46:10.558Z,14.13
2022-12-17T11:49:23.133Z,24.20
2022-12-17T11:52:25.841Z,24.70
2022-12-17T11:55:49.793Z,13.32
2022-12-17T11:58:58.540Z,12.93
2022-12-17T12:02:18.389Z,12.20
2022-12-17T12:05:49.772Z,13.20
2022-12-17T12:09:21.255Z,12.77
2022-12-17T12:12:46.309Z,12.93
2022-12-17T12:16:08.889Z,13.50
2022-12-17T12:19:37.965Z,11.90
2022-12-17T12:23:07.266Z,13.38
2022-12-17T12:26:13.866Z,13.20
2022-12-17T12:29:42.599Z,12.95
2022-12-17T12:33:10.253Z,14.57
2022-12-17T12:36:01.001Z,13.30
2022-12-17T12:39:02.014Z,14.30
2022-12-17T12:42:24.669Z,13.55
2022-12-17T12:45:41.672Z,13.55
2022-12-17T12:49:02.268Z,13.63
2022-12-17T12:51:57.042Z,13.82
2022-12-17T12:54:54.625Z,14.02
2022-12-17T12:57:50.640Z,17.70
2022-12-17T13:00:58.085Z,14.00
2022-12-17T13:03:52.011Z,15.73
2022-12-17T13:06:55.899Z,15.68
2022-12-17T13:09:52.223Z,15.27
2022-12-17T13:12:35.168Z,16.60
2022-12-17T13:15:32.769Z,16.85
2022-12-17T13:18:37.718Z,16.23
2022-12-17T13:21:29.021Z,17.10
2022-12-17T13:24:00.395Z,17.42
2022-12-17T13:26:46.512Z,18.48
2022-12-17T13:29:38.663Z,18.23
2022-12-17T13:32:24.357Z,17.40
2022-12-17T13:35:18.134Z,17.35
2022-12-17T13:38:04.054Z,16.98
2022-12-17T13:41:13.661Z,16.30
2022-12-17T13:43:59.387Z,17.25
2022-12-17T13:46:36.966Z,16.35
2022-12-17T13:49:08.679Z,23.08
2022-12-17T13:51:39.622Z,17.63
2022-12-17T13:54:19.635Z,17.52
2022-12-17T13:56:49.979Z,17.23
2022-12-17T13:59:26.782Z,21.38
2022-12-17T14:01:57.209Z,16.98
2022-12-17T14:04:31.049Z,17.85
2022-12-17T14:07:06.559Z,18.00
2022-12-17T14:09:42.315Z,16.70
2022-12-17T14:12:24.117Z,18.45
2022-12-17T14:14:59.877Z,17.77
2022-12-17T14:17:37.905Z,17.90
2022-12-17T14:20:27.048Z,17.25
2022-12-17T14:23:03.311Z,17.70
2022-12-17T14:25:39.543Z,17.25
2022-12-17T14:28:44.824Z,17.00
2022-12-17T14:31:32.478Z,18.48
2022-12-17T14:34:09.657Z,16.00
2022-12-17T14:36:43.731Z,15.60
2022-12-17T14:39:27.915Z,15.90
2022-12-17T14:42:28.072Z,16.10
2022-12-17T14:45:02.522Z,15.23
2022-12-17T14:47:35.982Z,16.25
2022-12-17T14:50:28.317Z,16.10
2022-12-17T14:53:01.758Z,17.15
2022-12-17T14:55:58.942Z,20.30
2022-12-17T14:58:29.891Z,19.10
2022-12-17T15:01:20.726Z,18.17
2022-12-17T15:03:51.685Z,17.90
2022-12-17T15:06:24.249Z,17.30
2022-12-17T15:08:55.671Z,16.38
2022-12-17T15:11:27.042Z,18.02
2022-12-17T15:13:57.181Z,16.13
2022-12-17T15:16:28.734Z,16.70
2022-12-17T15:18:59.393Z,16.90
2022-12-17T15:21:30.501Z,16.13
2022-12-17T15:24:01.443Z,17.50
2022-12-17T15:26:32.325Z,17.05
2022-12-17T15:29:04.070Z,16.35
2022-12-17T15:31:35.821Z,16.90
2022-12-17T15:34:07.835Z,16.40
2022-12-17T15:36:38.481Z,16.30
2022-12-17T15:39:10.758Z,16.05
2022-12-17T15:42:07.618Z,16.92
2022-12-17T15:44:38.394Z,16.60
2022-12-17T15:47:09.137Z,16.77
2022-12-17T15:49:40.099Z,16.67
2022-12-17T15:52:11.075Z,17.05
2022-12-17T15:54:45.715Z,16.13
2022-12-17T15:57:18.807Z,25.75
2022-12-17T15:59:50.318Z,31.08
2022-12-17T16:02:21.234Z,16.77
2022-12-17T16:04:52.326Z,17.85
2022-12-17T16:07:23.853Z,26.17
2022-12-17T16:09:54.727Z,26.30
2022-12-17T16:12:26.006Z,33.22
2022-12-17T16:14:57.303Z,18.83
2022-12-17T16:17:28.147Z,17.60
2022-12-17T16:19:59.085Z,16.58
2022-12-17T16:22:30.817Z,15.77
2022-12-17T16:25:02.577Z,17.60
2022-12-17T16:27:33.962Z,17.35
2022-12-17T16:30:05.339Z,17.15
2022-12-17T16:32:36.741Z,18.70
2022-12-17T16:35:08.753Z,18.45
2022-12-17T16:37:39.443Z,18.75
2022-12-17T16:40:11.543Z,18.33
2022-12-17T16:42:42.028Z,18.80
2022-12-17T16:45:13.151Z,18.75
2022-12-17T16:47:43.750Z,18.58
2022-12-17T16:50:14.338Z,91.18
2022-12-17T16:52:44.995Z,28.90
2022-12-17T16:55:18.908Z,24.95
2022-12-17T16:57:49.597Z,28.42
2022-12-17T17:00:20.768Z,18.77
2022-12-17T17:02:54.698Z,19.13
2022-12-17T17:05:25.433Z,19.15
2022-12-17T17:07:55.633Z,19.70
2022-12-17T17:10:26.450Z,19.23
2022-12-17T17:12:58.518Z,18.95
2022-12-17T17:15:29.518Z,18.45
2022-12-17T17:18:01.424Z,19.27
2022-12-17T17:20:35.567Z,20.02
2022-12-17T17:23:05.833Z,21.33
2022-12-17T17:25:57.658Z,20.38
2022-12-17T17:28:29.269Z,19.45
2022-12-17T17:31:08.649Z,37.83
2022-12-17T17:33:42.030Z,81.75
2022-12-17T17:36:15.528Z,23.98
2022-12-17T17:38:45.957Z,23.63
2022-12-17T17:41:20.635Z,24.98
2022-12-17T17:44:14.368Z,44.22
2022-12-17T17:46:44.496Z,25.40
2022-12-17T17:49:18.063Z,26.20
2022-12-17T17:52:21.249Z,25.75
2022-12-17T17:54:42.312Z,25.80
2022-12-17T17:57:12.726Z,25.98
2022-12-17T17:59:49.602Z,25.33
2022-12-17T18:02:19.667Z,26.58
2022-12-17T18:04:54.184Z,26.92
2022-12-17T18:07:26.029Z,26.73
2022-12-17T18:09:58.213Z,26.33
2022-12-17T18:12:49.379Z,27.10
2022-12-17T18:15:19.876Z,26.63
2022-12-17T18:17:53.981Z,25.02
2022-12-17T18:20:24.489Z,26.23
2022-12-17T18:22:55.461Z,27.55
2022-12-17T18:25:25.892Z,27.90
2022-12-17T18:27:56.691Z,26.67
2022-12-17T18:30:27.218Z,27.63
2022-12-17T18:32:57.682Z,28.52
2022-12-17T18:35:28.951Z,27.52
2022-12-17T18:37:59.604Z,27.50
2022-12-17T18:40:33.288Z,29.00
2022-12-17T18:43:23.591Z,30.13
2022-12-17T18:45:54.948Z,31.52
2022-12-17T18:48:25.370Z,30.42
2022-12-17T18:50:58.646Z,30.67
2022-12-17T18:53:33.389Z,31.70
2022-12-17T18:56:22.845Z,31.88
2022-12-17T18:59:02.697Z,31.98
2022-12-17T19:01:38.163Z,30.58
2022-12-17T19:04:10.924Z,31.75
2022-12-17T19:06:42.174Z,31.10
2022-12-17T19:09:22.548Z,30.95
2022-12-17T19:11:54.170Z,31.95
2022-12-17T19:14:26.625Z,31.85
2022-12-17T19:17:02.066Z,32.25
2022-12-17T19:19:39.470Z,32.30
2022-12-17T19:22:10.001Z,32.65
2022-12-17T19:24:40.778Z,33.05
2022-12-17T19:27:11.501Z,33.90
2022-12-17T19:29:46.218Z,32.65
2022-12-17T19:32:19.348Z,33.45
2022-12-17T19:34:50.087Z,32.85
2022-12-17T19:37:20.391Z,33.78
2022-12-17T19:39:50.724Z,32.55
2022-12-17T19:42:30.744Z,31.90
2022-12-17T19:45:07.316Z,31.95
2022-12-17T19:47:37.397Z,34.05
2022-12-17T19:50:07.841Z,33.75
2022-12-17T19:52:40.962Z,33.95
2022-12-17T19:55:14.285Z,33.33
2022-12-17T19:57:45.054Z,33.38
2022-12-17T20:00:16.860Z,31.73
2022-12-17T20:02:48.169Z,33.20
2022-12-17T20:05:19.425Z,33.15
2022-12-17T20:07:50.163Z,34.72
2022-12-17T20:10:21.176Z,33.75
2022-12-17T20:12:51.655Z,33.47
2022-12-17T20:15:22.696Z,33.50
2022-12-17T20:17:52.799Z,32.08
2022-12-17T20:20:23.614Z,32.33
2022-12-17T20:22:54.339Z,31.90
2022-12-17T20:25:24.448Z,33.25
2022-12-17T20:27:54.581Z,31.50
2022-12-17T20:30:26.723Z,32.83
2022-12-17T20:32:57.474Z,33.28
2022-12-17T20:35:31.033Z,32.45
2022-12-17T20:38:01.034Z,32.85
2022-12-17T20:40:31.789Z,32.92
2022-12-17T20:43:01.841Z,33.70
2022-12-17T20:45:32.286Z,33.83
2022-12-17T20:48:03.135Z,33.50
2022-12-17T20:50:33.259Z,33.42
2022-12-17T20:53:03.973Z,32.95
2022-12-17T20:55:34.021Z,32.80
2022-12-17T20:58:04.205Z,33.60
2022-12-17T21:00:35.858Z,33.47
2022-12-17T21:03:06.562Z,32.50
2022-12-17T21:05:38.285Z,33.33
2022-12-17T21:08:08.374Z,34.30
2022-12-17T21:10:38.409Z,32.85
2022-12-17T21:13:28.355Z,35.00
2022-12-17T21:16:04.135Z,33.30
2022-12-17T21:18:36.029Z,32.40
2022-12-17T21:21:10.749Z,34.08
2022-12-17T21:23:42.653Z,34.35
2022-12-17T21:26:20.676Z,33.17
2022-12-17T21:28:54.264Z,34.15
2022-12-17T21:31:39.450Z,34.15
2022-12-17T21:34:13.207Z,34.33
2022-12-17T21:36:43.827Z,33.47
2022-12-17T21:39:16.492Z,34.63
2022-12-17T21:42:10.804Z,33.83
2022-12-17T21:44:40.834Z,34.47
2022-12-17T21:47:11.075Z,33.65
2022-12-17T21:49:40.919Z,33.45
2022-12-17T21:52:11.251Z,34.15
2022-12-17T21:54:41.436Z,32.88
2022-12-17T21:57:11.819Z,33.15
2022-12-17T21:59:43.695Z,33.60
2022-12-17T22:02:14.256Z,32.58
2022-12-17T22:04:44.915Z,32.78
2022-12-17T22:07:24.290Z,33.58
2022-12-17T22:10:17.757Z,35.15
2022-12-17T22:13:06.574Z,32.15
2022-12-17T22:15:39.515Z,32.63
2022-12-17T22:18:12.159Z,32.05
2022-12-17T22:20:42.226Z,31.60
2022-12-17T22:23:12.286Z,32.10
2022-12-17T22:25:43.992Z,33.45
2022-12-17T22:28:14.216Z,33.33
2022-12-17T22:31:04.677Z,33.97
2022-12-17T22:33:58.611Z,32.55
2022-12-17T22:39:18.473Z,34.17
2022-12-17T22:44:29.054Z,32.35
2022-12-17T22:44:35.542Z,33.25
2022-12-17T22:45:24.936Z,33.55
2022-12-17T22:47:56.369Z,31.98
2022-12-17T22:50:34.531Z,33.65
2022-12-17T22:53:15.115Z,35.70
2022-12-17T22:55:46.029Z,34.35
2022-12-17T22:58:16.676Z,35.22
2022-12-17T23:00:47.080Z,32.42
2022-12-17T23:03:18.400Z,34.22
2022-12-17T23:05:49.284Z,35.20
2022-12-17T23:08:19.224Z,35.22
2022-12-17T23:10:49.309Z,35.65
2022-12-17T23:13:19.564Z,35.80
2022-12-17T23:15:49.681Z,35.15
2022-12-17T23:18:20.029Z,36.20
2022-12-17T23:20:50.441Z,36.38
2022-12-17T23:23:21.030Z,38.28
2022-12-17T23:25:51.394Z,37.97
2022-12-17T23:28:21.790Z,35.83
2022-12-17T23:30:52.240Z,37.72
2022-12-17T23:33:22.974Z,36.15
2022-12-17T23:35:53.596Z,35.75
2022-12-17T23:38:24.085Z,35.78
2022-12-17T23:40:54.331Z,36.72
2022-12-17T23:43:24.425Z,36.85
2022-12-17T23:45:54.673Z,38.90
2022-12-17T23:48:25.060Z,36.67
2022-12-17T23:50:55.282Z,38.10
2022-12-17T23:53:25.871Z,37.63
2022-12-17T23:55:56.538Z,38.70
2022-12-17T23:58:27.307Z,36.67
